sensor_id;sensor_type;location;lat;lon;timestamp;pressure;altitude;pressure_sealevel;temperature;humidity
39843;BME280;25514;46.764;15.406;2022-08-11T00:01:36;97563.13;;;17.70;61.58
39843;BME280;25514;46.764;15.406;2022-08-11T00:04:03;97560.97;;;17.74;60.68
39843;BME280;25514;46.764;15.406;2022-08-11T00:06:35;97554.53;;;17.77;60.34
39843;BME280;25514;46.764;15.406;2022-08-11T00:09:04;97555.31;;;17.78;59.35
39843;BME280;25514;46.764;15.406;2022-08-11T00:11:46;97553.78;;;17.86;59.40
39843;BME280;25514;46.764;15.406;2022-08-11T00:14:16;97552.84;;;17.71;59.80
39843;BME280;25514;46.764;15.406;2022-08-11T00:16:52;97557.13;;;17.72;59.32
39843;BME280;25514;46.764;15.406;2022-08-11T00:19:26;97560.03;;;17.77;58.90
39843;BME280;25514;46.764;15.406;2022-08-11T00:21:53;97557.91;;;17.72;58.79
39843;BME280;25514;46.764;15.406;2022-08-11T00:24:20;97560.03;;;17.77;58.54
39843;BME280;25514;46.764;15.406;2022-08-11T00:26:51;97554.38;;;17.81;58.41
39843;BME280;25514;46.764;15.406;2022-08-11T00:29:17;97557.47;;;17.83;58.26
39843;BME280;25514;46.764;15.406;2022-08-11T00:31:52;97555.78;;;17.86;58.15
39843;BME280;25514;46.764;15.406;2022-08-11T00:34:26;97559.75;;;17.75;58.28
39843;BME280;25514;46.764;15.406;2022-08-11T00:36:54;97559.44;;;17.73;57.81
39843;BME280;25514;46.764;15.406;2022-08-11T00:39:22;97553.13;;;17.73;58.29
39843;BME280;25514;46.764;15.406;2022-08-11T00:52:15;97555.69;;;17.39;59.06
39843;BME280;25514;46.764;15.406;2022-08-11T00:55:30;97562.41;;;17.29;59.25
39843;BME280;25514;46.764;15.406;2022-08-11T01:09:32;97547.00;;;17.10;59.34
39843;BME280;25514;46.764;15.406;2022-08-11T01:54:48;97547.59;;;16.82;58.14
39843;BME280;25514;46.764;15.406;2022-08-11T01:59:53;97545.25;;;16.71;58.50
39843;BME280;25514;46.764;15.406;2022-08-11T02:02:36;97547.06;;;16.65;58.85
39843;BME280;25514;46.764;15.406;2022-08-11T02:05:25;97542.16;;;16.38;60.88
39843;BME280;25514;46.764;15.406;2022-08-11T02:11:06;97523.09;;;16.31;60.38
39843;BME280;25514;46.764;15.406;2022-08-11T02:13:54;97520.53;;;16.37;60.89
39843;BME280;25514;46.764;15.406;2022-08-11T02:25:58;97523.25;;;16.05;60.67
39843;BME280;25514;46.764;15.406;2022-08-11T02:28:30;97527.59;;;16.15;59.97
39843;BME280;25514;46.764;15.406;2022-08-11T02:31:17;97519.66;;;16.17;60.34
39843;BME280;25514;46.764;15.406;2022-08-11T02:34:14;97527.56;;;15.93;64.33
39843;BME280;25514;46.764;15.406;2022-08-11T02:36:54;97524.13;;;15.80;62.48
39843;BME280;25514;46.764;15.406;2022-08-11T02:39:30;97520.78;;;15.85;61.56
39843;BME280;25514;46.764;15.406;2022-08-11T02:42:20;97522.97;;;15.90;61.13
39843;BME280;25514;46.764;15.406;2022-08-11T02:56:39;97524.78;;;16.28;58.64
39843;BME280;25514;46.764;15.406;2022-08-11T03:10:54;97522.84;;;16.38;57.95
39843;BME280;25514;46.764;15.406;2022-08-11T03:16:55;97514.69;;;16.34;57.79
39843;BME280;25514;46.764;15.406;2022-08-11T03:22:21;97519.13;;;16.32;58.06
39843;BME280;25514;46.764;15.406;2022-08-11T03:36:04;97520.00;;;15.85;62.22
39843;BME280;25514;46.764;15.406;2022-08-11T03:38:48;97532.91;;;15.75;62.60
39843;BME280;25514;46.764;15.406;2022-08-11T03:41:28;97541.59;;;15.73;61.51
39843;BME280;25514;46.764;15.406;2022-08-11T03:44:20;97544.19;;;15.68;62.58
39843;BME280;25514;46.764;15.406;2022-08-11T03:47:26;97548.38;;;15.59;62.68
39843;BME280;25514;46.764;15.406;2022-08-11T03:53:02;97540.44;;;15.61;61.29
39843;BME280;25514;46.764;15.406;2022-08-11T04:21:19;97539.03;;;15.44;63.62
39843;BME280;25514;46.764;15.406;2022-08-11T04:30:29;97543.56;;;15.38;63.62
39843;BME280;25514;46.764;15.406;2022-08-11T04:33:29;97549.31;;;15.31;63.56
39843;BME280;25514;46.764;15.406;2022-08-11T04:45:44;97551.28;;;15.43;63.38
39843;BME280;25514;46.764;15.406;2022-08-11T04:53:59;97568.69;;;15.14;67.76
39843;BME280;25514;46.764;15.406;2022-08-11T04:56:47;97564.94;;;15.08;67.17
39843;BME280;25514;46.764;15.406;2022-08-11T04:59:51;97561.88;;;15.06;68.70
39843;BME280;25514;46.764;15.406;2022-08-11T05:09:07;97567.13;;;15.00;68.86
39843;BME280;25514;46.764;15.406;2022-08-11T05:14:26;97561.63;;;14.87;69.85
39843;BME280;25514;46.764;15.406;2022-08-11T05:17:15;97563.72;;;14.83;70.27
39843;BME280;25514;46.764;15.406;2022-08-11T05:20:09;97566.13;;;14.94;69.02
39843;BME280;25514;46.764;15.406;2022-08-11T05:22:54;97568.81;;;14.98;68.66
39843;BME280;25514;46.764;15.406;2022-08-11T05:25:43;97567.38;;;15.06;68.90
39843;BME280;25514;46.764;15.406;2022-08-11T05:28:35;97562.31;;;14.91;69.21
39843;BME280;25514;46.764;15.406;2022-08-11T05:31:34;97564.72;;;15.02;69.13
39843;BME280;25514;46.764;15.406;2022-08-11T05:34:42;97561.53;;;15.04;69.78
39843;BME280;25514;46.764;15.406;2022-08-11T05:37:24;97561.31;;;15.11;70.60
39843;BME280;25514;46.764;15.406;2022-08-11T05:42:49;97560.22;;;15.21;71.57
39843;BME280;25514;46.764;15.406;2022-08-11T05:45:34;97567.59;;;15.24;71.75
39843;BME280;25514;46.764;15.406;2022-08-11T05:48:20;97561.84;;;15.32;71.84
39843;BME280;25514;46.764;15.406;2022-08-11T05:51:04;97568.34;;;15.38;72.50
39843;BME280;25514;46.764;15.406;2022-08-11T05:53:52;97567.78;;;15.43;72.80
39843;BME280;25514;46.764;15.406;2022-08-11T05:56:42;97570.09;;;15.44;73.05
39843;BME280;25514;46.764;15.406;2022-08-11T05:59:13;97558.53;;;15.50;73.57
39843;BME280;25514;46.764;15.406;2022-08-11T06:01:41;97563.91;;;15.53;72.83
39843;BME280;25514;46.764;15.406;2022-08-11T06:04:19;97564.13;;;15.59;71.86
39843;BME280;25514;46.764;15.406;2022-08-11T06:06:49;97572.63;;;15.64;71.32
39843;BME280;25514;46.764;15.406;2022-08-11T06:09:23;97574.13;;;15.66;70.97
39843;BME280;25514;46.764;15.406;2022-08-11T06:11:49;97572.81;;;15.70;71.28
39843;BME280;25514;46.764;15.406;2022-08-11T06:14:16;97576.34;;;15.84;71.06
39843;BME280;25514;46.764;15.406;2022-08-11T06:16:47;97571.34;;;15.91;70.89
39843;BME280;25514;46.764;15.406;2022-08-11T06:19:13;97569.75;;;16.03;70.56
39843;BME280;25514;46.764;15.406;2022-08-11T06:21:44;97563.88;;;16.14;69.15
39843;BME280;25514;46.764;15.406;2022-08-11T06:24:10;97563.78;;;16.17;69.24
39843;BME280;25514;46.764;15.406;2022-08-11T06:26:37;97565.03;;;16.26;68.95
39843;BME280;25514;46.764;15.406;2022-08-11T06:29:04;97568.25;;;16.46;69.13
39843;BME280;25514;46.764;15.406;2022-08-11T06:31:31;97570.09;;;16.71;68.58
39843;BME280;25514;46.764;15.406;2022-08-11T06:34:11;97581.03;;;17.06;67.85
39843;BME280;25514;46.764;15.406;2022-08-11T06:36:56;97576.25;;;17.48;66.82
39843;BME280;25514;46.764;15.406;2022-08-11T06:39:40;97572.94;;;17.71;64.82
39843;BME280;25514;46.764;15.406;2022-08-11T06:42:15;97576.81;;;18.48;66.46
39843;BME280;25514;46.764;15.406;2022-08-11T06:47:45;97565.50;;;19.40;62.41
39843;BME280;25514;46.764;15.406;2022-08-11T06:50:17;97568.88;;;19.69;59.75
39843;BME280;25514;46.764;15.406;2022-08-11T06:53:04;97572.59;;;20.14;58.08
39843;BME280;25514;46.764;15.406;2022-08-11T06:55:31;97575.41;;;20.44;57.75
39843;BME280;25514;46.764;15.406;2022-08-11T06:58:19;97572.75;;;21.24;58.05
39843;BME280;25514;46.764;15.406;2022-08-11T07:01:10;97577.44;;;21.89;55.27
39843;BME280;25514;46.764;15.406;2022-08-11T07:03:41;97564.63;;;22.18;53.40
39843;BME280;25514;46.764;15.406;2022-08-11T07:06:35;97565.84;;;22.58;52.36
39843;BME280;25514;46.764;15.406;2022-08-11T07:09:32;97568.69;;;23.27;52.90
39843;BME280;25514;46.764;15.406;2022-08-11T07:12:40;97558.78;;;23.64;50.16
39843;BME280;25514;46.764;15.406;2022-08-11T07:15:32;97565.03;;;23.91;49.10
39843;BME280;25514;46.764;15.406;2022-08-11T07:18:27;97563.50;;;23.90;48.49
39843;BME280;25514;46.764;15.406;2022-08-11T07:21:29;97566.44;;;24.35;48.92
39843;BME280;25514;46.764;15.406;2022-08-11T07:24:17;97553.81;;;24.68;46.65
39843;BME280;25514;46.764;15.406;2022-08-11T07:27:05;97556.63;;;24.85;47.06
39843;BME280;25514;46.764;15.406;2022-08-11T07:29:53;97553.56;;;25.11;45.25
39843;BME280;25514;46.764;15.406;2022-08-11T07:32:33;97552.28;;;25.23;44.68
39843;BME280;25514;46.764;15.406;2022-08-11T07:35:08;97552.00;;;25.44;45.93
39843;BME280;25514;46.764;15.406;2022-08-11T07:37:40;97558.97;;;25.96;44.16
39843;BME280;25514;46.764;15.406;2022-08-11T07:40:07;97554.84;;;26.14;42.04
39843;BME280;25514;46.764;15.406;2022-08-11T07:42:33;97559.66;;;26.19;42.06
39843;BME280;25514;46.764;15.406;2022-08-11T07:45:05;97557.38;;;26.59;40.58
39843;BME280;25514;46.764;15.406;2022-08-11T07:47:51;97555.84;;;26.58;41.03
39843;BME280;25514;46.764;15.406;2022-08-11T07:50:40;97547.13;;;26.73;38.48
39843;BME280;25514;46.764;15.406;2022-08-11T07:53:25;97552.97;;;26.75;38.43
39843;BME280;25514;46.764;15.406;2022-08-11T07:55:53;97552.13;;;26.86;38.27
39843;BME280;25514;46.764;15.406;2022-08-11T07:58:21;97555.84;;;27.00;38.86
39843;BME280;25514;46.764;15.406;2022-08-11T08:01:06;97547.50;;;27.19;38.05
39843;BME280;25514;46.764;15.406;2022-08-11T08:03:50;97544.56;;;27.36;36.89
39843;BME280;25514;46.764;15.406;2022-08-11T08:06:35;97541.22;;;27.62;36.90
39843;BME280;25514;46.764;15.406;2022-08-11T08:09:20;97542.78;;;27.82;34.49
39843;BME280;25514;46.764;15.406;2022-08-11T08:12:07;97535.50;;;27.92;33.75
39843;BME280;25514;46.764;15.406;2022-08-11T08:14:52;97533.72;;;27.95;34.59
39843;BME280;25514;46.764;15.406;2022-08-11T08:17:39;97535.69;;;28.00;33.23
39843;BME280;25514;46.764;15.406;2022-08-11T08:20:20;97531.59;;;28.20;33.33
39843;BME280;25514;46.764;15.406;2022-08-11T08:22:50;97529.06;;;28.36;34.23
39843;BME280;25514;46.764;15.406;2022-08-11T08:25:25;97529.00;;;28.41;32.83
39843;BME280;25514;46.764;15.406;2022-08-11T08:27:51;97533.88;;;28.60;32.88
39843;BME280;25514;46.764;15.406;2022-08-11T08:30:17;97530.19;;;28.65;32.28
39843;BME280;25514;46.764;15.406;2022-08-11T08:33:02;97520.75;;;28.81;32.58
39843;BME280;25514;46.764;15.406;2022-08-11T08:35:28;97516.94;;;28.79;31.83
39843;BME280;25514;46.764;15.406;2022-08-11T08:37:58;97521.38;;;28.74;33.61
39843;BME280;25514;46.764;15.406;2022-08-11T08:40:26;97527.13;;;28.82;34.24
39843;BME280;25514;46.764;15.406;2022-08-11T08:42:55;97512.75;;;28.85;33.03
39843;BME280;25514;46.764;15.406;2022-08-11T08:45:22;97516.13;;;28.97;34.35
39843;BME280;25514;46.764;15.406;2022-08-11T08:47:58;97516.69;;;29.09;33.56
39843;BME280;25514;46.764;15.406;2022-08-11T08:50:29;97512.66;;;29.04;33.25
39843;BME280;25514;46.764;15.406;2022-08-11T08:53:24;97517.81;;;28.87;32.15
39843;BME280;25514;46.764;15.406;2022-08-11T08:55:58;97515.38;;;29.10;31.28
39843;BME280;25514;46.764;15.406;2022-08-11T08:58:25;97512.53;;;29.43;32.19
39843;BME280;25514;46.764;15.406;2022-08-11T09:00:53;97514.38;;;29.53;31.14
39843;BME280;25514;46.764;15.406;2022-08-11T09:03:19;97506.66;;;29.67;31.03
39843;BME280;25514;46.764;15.406;2022-08-11T09:05:46;97503.09;;;29.53;30.89
39843;BME280;25514;46.764;15.406;2022-08-11T09:08:16;97500.94;;;29.60;30.85
39843;BME280;25514;46.764;15.406;2022-08-11T09:10:45;97497.34;;;29.59;31.42
39843;BME280;25514;46.764;15.406;2022-08-11T09:13:13;97505.69;;;29.65;31.58
39843;BME280;25514;46.764;15.406;2022-08-11T09:15:39;97502.88;;;29.38;30.93
39843;BME280;25514;46.764;15.406;2022-08-11T09:18:05;97493.34;;;29.28;31.64
39843;BME280;25514;46.764;15.406;2022-08-11T09:20:35;97493.91;;;29.39;31.78
39843;BME280;25514;46.764;15.406;2022-08-11T09:23:06;97490.84;;;29.64;31.42
39843;BME280;25514;46.764;15.406;2022-08-11T09:25:55;97490.41;;;29.60;30.92
39843;BME280;25514;46.764;15.406;2022-08-11T09:28:42;97489.25;;;29.29;31.12
39843;BME280;25514;46.764;15.406;2022-08-11T09:31:09;97494.75;;;29.48;31.01
39843;BME280;25514;46.764;15.406;2022-08-11T09:33:36;97479.66;;;29.18;30.35
39843;BME280;25514;46.764;15.406;2022-08-11T09:36:03;97483.25;;;29.59;32.05
39843;BME280;25514;46.764;15.406;2022-08-11T09:38:50;97484.88;;;29.94;32.61
39843;BME280;25514;46.764;15.406;2022-08-11T09:41:35;97475.69;;;29.81;30.32
39843;BME280;25514;46.764;15.406;2022-08-11T09:44:01;97469.06;;;29.91;31.21
39843;BME280;25514;46.764;15.406;2022-08-11T09:46:45;97470.75;;;30.08;29.64
39843;BME280;25514;46.764;15.406;2022-08-11T09:49:11;97468.31;;;30.25;29.42
39843;BME280;25514;46.764;15.406;2022-08-11T09:51:37;97466.75;;;30.59;30.35
39843;BME280;25514;46.764;15.406;2022-08-11T09:54:04;97467.72;;;30.61;29.86
39843;BME280;25514;46.764;15.406;2022-08-11T09:56:32;97466.72;;;30.51;29.01
39843;BME280;25514;46.764;15.406;2022-08-11T09:59:17;97459.69;;;30.65;29.64
39843;BME280;25514;46.764;15.406;2022-08-11T10:01:47;97450.78;;;30.82;30.46
39843;BME280;25514;46.764;15.406;2022-08-11T10:04:18;97454.56;;;30.85;28.83
39843;BME280;25514;46.764;15.406;2022-08-11T10:06:52;97449.75;;;30.72;28.81
39843;BME280;25514;46.764;15.406;2022-08-11T10:12:02;97441.41;;;30.24;29.51
39843;BME280;25514;46.764;15.406;2022-08-11T10:14:31;97436.16;;;30.42;30.25
39843;BME280;25514;46.764;15.406;2022-08-11T10:17:18;97435.59;;;30.64;29.55
39843;BME280;25514;46.764;15.406;2022-08-11T10:19:46;97432.41;;;30.89;29.77
39843;BME280;25514;46.764;15.406;2022-08-11T10:22:14;97432.03;;;31.14;29.29
39843;BME280;25514;46.764;15.406;2022-08-11T10:24:59;97427.97;;;31.30;28.37
39843;BME280;25514;46.764;15.406;2022-08-11T10:27:43;97429.31;;;31.29;28.48
39843;BME280;25514;46.764;15.406;2022-08-11T10:30:10;97426.47;;;31.29;28.75
39843;BME280;25514;46.764;15.406;2022-08-11T10:32:56;97425.16;;;31.30;28.64
39843;BME280;25514;46.764;15.406;2022-08-11T10:35:41;97421.81;;;31.40;28.73
39843;BME280;25514;46.764;15.406;2022-08-11T10:38:08;97414.59;;;31.23;27.59
39843;BME280;25514;46.764;15.406;2022-08-11T10:40:39;97415.69;;;31.20;28.11
39843;BME280;25514;46.764;15.406;2022-08-11T10:43:06;97406.50;;;31.27;28.55
39843;BME280;25514;46.764;15.406;2022-08-11T10:45:39;97407.50;;;31.38;28.48
39843;BME280;25514;46.764;15.406;2022-08-11T10:48:25;97401.91;;;31.53;28.64
39843;BME280;25514;46.764;15.406;2022-08-11T10:50:52;97404.63;;;31.66;28.33
39843;BME280;25514;46.764;15.406;2022-08-11T10:53:44;97399.59;;;31.88;28.15
39843;BME280;25514;46.764;15.406;2022-08-11T10:56:31;97386.59;;;31.85;26.87
39843;BME280;25514;46.764;15.406;2022-08-11T10:59:16;97379.84;;;32.03;27.28
39843;BME280;25514;46.764;15.406;2022-08-11T11:01:42;97376.88;;;32.09;26.88
39843;BME280;25514;46.764;15.406;2022-08-11T11:04:14;97379.50;;;32.07;26.49
39843;BME280;25514;46.764;15.406;2022-08-11T11:09:27;97385.16;;;31.99;25.38
39843;BME280;25514;46.764;15.406;2022-08-11T11:15:01;97367.66;;;32.32;27.20
39843;BME280;25514;46.764;15.406;2022-08-11T11:18:00;97367.31;;;32.35;26.86
39843;BME280;25514;46.764;15.406;2022-08-11T11:37:22;97350.13;;;32.64;24.53
39843;BME280;25514;46.764;15.406;2022-08-11T11:39:49;97348.22;;;32.90;24.65
39843;BME280;25514;46.764;15.406;2022-08-11T11:42:15;97357.97;;;33.12;24.20
39843;BME280;25514;46.764;15.406;2022-08-11T11:44:43;97360.06;;;33.11;24.70
39843;BME280;25514;46.764;15.406;2022-08-11T11:47:13;97343.97;;;33.14;24.42
39843;BME280;25514;46.764;15.406;2022-08-11T11:49:41;97349.28;;;33.10;23.80
39843;BME280;25514;46.764;15.406;2022-08-11T11:52:12;97360.13;;;32.73;23.80
39843;BME280;25514;46.764;15.406;2022-08-11T11:54:39;97350.50;;;32.84;24.37
39843;BME280;25514;46.764;15.406;2022-08-11T11:57:06;97346.88;;;32.83;24.31
39843;BME280;25514;46.764;15.406;2022-08-11T11:59:51;97339.59;;;32.65;23.57
39843;BME280;25514;46.764;15.406;2022-08-11T12:02:39;97340.50;;;32.75;24.18
39843;BME280;25514;46.764;15.406;2022-08-11T12:05:06;97338.41;;;32.75;23.85
39843;BME280;25514;46.764;15.406;2022-08-11T12:07:32;97340.31;;;32.81;23.80
39843;BME280;25514;46.764;15.406;2022-08-11T12:10:18;97332.53;;;32.89;24.11
39843;BME280;25514;46.764;15.406;2022-08-11T12:12:44;97332.69;;;33.06;24.34
39843;BME280;25514;46.764;15.406;2022-08-11T12:15:29;97337.31;;;32.32;24.15
39843;BME280;25514;46.764;15.406;2022-08-11T12:17:55;97333.03;;;31.56;23.91
39843;BME280;25514;46.764;15.406;2022-08-11T12:20:22;97336.31;;;31.31;24.06
39843;BME280;25514;46.764;15.406;2022-08-11T12:22:48;97331.13;;;31.51;24.20
39843;BME280;25514;46.764;15.406;2022-08-11T12:25:33;97331.41;;;31.32;24.27
39843;BME280;25514;46.764;15.406;2022-08-11T12:28:18;97319.03;;;31.43;25.54
39843;BME280;25514;46.764;15.406;2022-08-11T12:30:46;97315.72;;;31.67;25.15
39843;BME280;25514;46.764;15.406;2022-08-11T12:33:12;97310.69;;;31.89;24.35
39843;BME280;25514;46.764;15.406;2022-08-11T12:35:38;97307.69;;;31.87;23.00
39843;BME280;25514;46.764;15.406;2022-08-11T12:38:05;97312.41;;;32.00;24.03
39843;BME280;25514;46.764;15.406;2022-08-11T12:40:36;97306.75;;;32.07;23.89
39843;BME280;25514;46.764;15.406;2022-08-11T12:43:23;97292.03;;;31.94;23.33
39843;BME280;25514;46.764;15.406;2022-08-11T12:46:17;97288.69;;;32.26;24.41
39843;BME280;25514;46.764;15.406;2022-08-11T12:48:45;97290.16;;;32.42;23.49
39843;BME280;25514;46.764;15.406;2022-08-11T12:51:33;97296.97;;;32.08;23.00
39843;BME280;25514;46.764;15.406;2022-08-11T12:54:32;97278.13;;;32.11;23.03
39843;BME280;25514;46.764;15.406;2022-08-11T12:57:06;97284.16;;;32.38;23.49
39843;BME280;25514;46.764;15.406;2022-08-11T12:59:53;97276.56;;;32.64;24.90
39843;BME280;25514;46.764;15.406;2022-08-11T13:02:39;97270.56;;;32.52;23.68
39843;BME280;25514;46.764;15.406;2022-08-11T13:05:24;97272.81;;;32.54;23.22
39843;BME280;25514;46.764;15.406;2022-08-11T13:07:50;97268.22;;;32.82;23.34
39843;BME280;25514;46.764;15.406;2022-08-11T13:10:18;97269.31;;;32.94;23.15
39843;BME280;25514;46.764;15.406;2022-08-11T13:13:03;97266.31;;;32.92;23.21
39843;BME280;25514;46.764;15.406;2022-08-11T13:15:31;97264.00;;;32.98;23.36
39843;BME280;25514;46.764;15.406;2022-08-11T13:17:57;97264.06;;;32.83;22.93
39843;BME280;25514;46.764;15.406;2022-08-11T13:20:24;97268.78;;;32.80;22.40
39843;BME280;25514;46.764;15.406;2022-08-11T13:22:52;97257.31;;;32.70;22.96
39843;BME280;25514;46.764;15.406;2022-08-11T13:25:22;97257.09;;;32.84;22.65
39843;BME280;25514;46.764;15.406;2022-08-11T13:27:52;97252.88;;;33.00;22.69
39843;BME280;25514;46.764;15.406;2022-08-11T13:30:18;97250.00;;;33.08;22.66
39843;BME280;25514;46.764;15.406;2022-08-11T13:33:05;97251.13;;;33.12;22.49
39843;BME280;25514;46.764;15.406;2022-08-11T13:35:32;97243.53;;;33.23;22.84
39843;BME280;25514;46.764;15.406;2022-08-11T13:38:00;97235.63;;;33.13;23.30
39843;BME280;25514;46.764;15.406;2022-08-11T13:40:30;97232.22;;;33.23;23.33
39843;BME280;25514;46.764;15.406;2022-08-11T13:42:56;97234.47;;;33.24;23.85
39843;BME280;25514;46.764;15.406;2022-08-11T13:45:26;97228.41;;;33.28;24.04
39843;BME280;25514;46.764;15.406;2022-08-11T13:47:55;97239.06;;;33.04;23.73
39843;BME280;25514;46.764;15.406;2022-08-11T13:50:23;97240.34;;;32.70;22.01
39843;BME280;25514;46.764;15.406;2022-08-11T13:53:10;97233.22;;;32.54;23.07
39843;BME280;25514;46.764;15.406;2022-08-11T13:55:40;97230.97;;;32.37;25.10
39843;BME280;25514;46.764;15.406;2022-08-11T13:58:09;97218.16;;;32.28;23.88
39843;BME280;25514;46.764;15.406;2022-08-11T14:00:35;97215.19;;;32.11;23.18
39843;BME280;25514;46.764;15.406;2022-08-11T14:03:02;97220.81;;;32.18;24.50
39843;BME280;25514;46.764;15.406;2022-08-11T14:05:36;97205.56;;;32.14;23.71
39843;BME280;25514;46.764;15.406;2022-08-11T14:08:09;97208.19;;;31.65;23.86
39843;BME280;25514;46.764;15.406;2022-08-11T14:10:38;97206.31;;;31.99;24.39
39843;BME280;25514;46.764;15.406;2022-08-11T14:13:10;97212.69;;;32.22;24.40
39843;BME280;25514;46.764;15.406;2022-08-11T14:15:59;97201.56;;;32.40;24.36
39843;BME280;25514;46.764;15.406;2022-08-11T14:18:28;97192.09;;;32.53;23.94
39843;BME280;25514;46.764;15.406;2022-08-11T14:20:56;97194.00;;;32.42;23.75
39843;BME280;25514;46.764;15.406;2022-08-11T14:23:44;97192.16;;;32.22;24.26
39843;BME280;25514;46.764;15.406;2022-08-11T14:26:11;97185.59;;;32.12;23.45
39843;BME280;25514;46.764;15.406;2022-08-11T14:28:48;97193.28;;;32.27;23.31
39843;BME280;25514;46.764;15.406;2022-08-11T14:31:14;97187.47;;;32.24;23.37
39843;BME280;25514;46.764;15.406;2022-08-11T14:33:41;97185.38;;;31.94;22.82
39843;BME280;25514;46.764;15.406;2022-08-11T14:36:09;97175.97;;;31.99;23.00
39843;BME280;25514;46.764;15.406;2022-08-11T14:38:37;97188.03;;;31.84;22.13
39843;BME280;25514;46.764;15.406;2022-08-11T14:41:04;97175.59;;;31.64;21.48
39843;BME280;25514;46.764;15.406;2022-08-11T14:43:49;97177.47;;;31.69;21.92
39843;BME280;25514;46.764;15.406;2022-08-11T14:46:33;97172.22;;;31.89;22.22
39843;BME280;25514;46.764;15.406;2022-08-11T14:49:18;97176.91;;;31.94;22.43
39843;BME280;25514;46.764;15.406;2022-08-11T14:51:45;97169.56;;;31.91;21.85
39843;BME280;25514;46.764;15.406;2022-08-11T14:54:13;97170.69;;;31.65;22.01
39843;BME280;25514;46.764;15.406;2022-08-11T14:56:58;97170.16;;;31.59;21.77
39843;BME280;25514;46.764;15.406;2022-08-11T14:59:24;97167.88;;;31.65;21.38
39843;BME280;25514;46.764;15.406;2022-08-11T15:01:50;97169.19;;;32.02;21.87
39843;BME280;25514;46.764;15.406;2022-08-11T15:04:34;97163.16;;;32.21;21.40
39843;BME280;25514;46.764;15.406;2022-08-11T15:07:01;97161.25;;;32.16;21.51
39843;BME280;25514;46.764;15.406;2022-08-11T15:09:26;97160.88;;;32.20;21.76
39843;BME280;25514;46.764;15.406;2022-08-11T15:11:52;97158.66;;;32.11;21.73
39843;BME280;25514;46.764;15.406;2022-08-11T15:14:34;97160.16;;;32.12;22.39
39843;BME280;25514;46.764;15.406;2022-08-11T15:17:18;97163.91;;;32.14;22.38
39843;BME280;25514;46.764;15.406;2022-08-11T15:19:45;97161.28;;;31.93;23.09
39843;BME280;25514;46.764;15.406;2022-08-11T15:22:30;97155.06;;;31.41;23.11
39843;BME280;25514;46.764;15.406;2022-08-11T15:25:14;97153.50;;;31.09;23.84
39843;BME280;25514;46.764;15.406;2022-08-11T15:27:41;97151.28;;;31.30;24.21
39843;BME280;25514;46.764;15.406;2022-08-11T15:30:27;97148.44;;;31.30;23.75
39843;BME280;25514;46.764;15.406;2022-08-11T15:33:14;97142.81;;;31.30;23.99
39843;BME280;25514;46.764;15.406;2022-08-11T15:36:02;97146.34;;;31.00;24.01
39843;BME280;25514;46.764;15.406;2022-08-11T15:38:55;97146.84;;;30.91;24.47
39843;BME280;25514;46.764;15.406;2022-08-11T15:41:27;97140.38;;;30.59;24.42
39843;BME280;25514;46.764;15.406;2022-08-11T15:44:13;97141.22;;;30.39;25.29
39843;BME280;25514;46.764;15.406;2022-08-11T15:47:01;97143.16;;;30.23;25.52
39843;BME280;25514;46.764;15.406;2022-08-11T15:49:36;97140.81;;;30.06;26.37
39843;BME280;25514;46.764;15.406;2022-08-11T15:52:08;97137.78;;;29.75;26.50
39843;BME280;25514;46.764;15.406;2022-08-11T15:54:38;97139.03;;;29.66;26.27
39843;BME280;25514;46.764;15.406;2022-08-11T15:57:06;97132.25;;;29.62;26.07
39843;BME280;25514;46.764;15.406;2022-08-11T15:59:34;97139.94;;;29.61;26.27
39843;BME280;25514;46.764;15.406;2022-08-11T16:02:21;97135.53;;;29.52;26.24
39843;BME280;25514;46.764;15.406;2022-08-11T16:05:09;97143.09;;;29.57;27.14
39843;BME280;25514;46.764;15.406;2022-08-11T16:07:37;97126.78;;;29.35;26.46
39843;BME280;25514;46.764;15.406;2022-08-11T16:10:07;97129.97;;;29.18;27.09
39843;BME280;25514;46.764;15.406;2022-08-11T16:12:40;97122.72;;;29.22;27.79
39843;BME280;25514;46.764;15.406;2022-08-11T16:15:09;97119.44;;;29.18;27.26
39843;BME280;25514;46.764;15.406;2022-08-11T16:17:59;97122.66;;;29.01;26.74
39843;BME280;25514;46.764;15.406;2022-08-11T16:20:28;97123.72;;;28.91;27.61
39843;BME280;25514;46.764;15.406;2022-08-11T16:23:05;97129.94;;;28.62;27.80
39843;BME280;25514;46.764;15.406;2022-08-11T16:25:33;97124.88;;;28.61;28.18
39843;BME280;25514;46.764;15.406;2022-08-11T16:28:02;97118.13;;;28.16;27.66
39843;BME280;25514;46.764;15.406;2022-08-11T16:30:36;97120.16;;;28.15;28.45
39843;BME280;25514;46.764;15.406;2022-08-11T16:33:04;97115.41;;;28.10;28.64
39843;BME280;25514;46.764;15.406;2022-08-11T16:35:33;97116.13;;;27.84;28.90
39843;BME280;25514;46.764;15.406;2022-08-11T16:38:20;97118.41;;;27.86;29.41
39843;BME280;25514;46.764;15.406;2022-08-11T16:41:03;97121.34;;;27.80;29.86
39843;BME280;25514;46.764;15.406;2022-08-11T16:43:32;97111.19;;;27.77;29.67
39843;BME280;25514;46.764;15.406;2022-08-11T16:46:18;97117.97;;;27.68;29.79
39843;BME280;25514;46.764;15.406;2022-08-11T16:49:21;97119.50;;;27.69;30.03
39843;BME280;25514;46.764;15.406;2022-08-11T16:51:49;97118.72;;;27.69;30.51
39843;BME280;25514;46.764;15.406;2022-08-11T16:54:15;97125.41;;;27.66;29.78
39843;BME280;25514;46.764;15.406;2022-08-11T16:56:44;97118.19;;;27.57;29.67
39843;BME280;25514;46.764;15.406;2022-08-11T16:59:34;97121.81;;;27.52;30.05
39843;BME280;25514;46.764;15.406;2022-08-11T17:02:08;97113.09;;;27.55;29.98
39843;BME280;25514;46.764;15.406;2022-08-11T17:04:55;97121.41;;;27.48;31.09
39843;BME280;25514;46.764;15.406;2022-08-11T17:07:41;97116.41;;;27.40;30.21
39843;BME280;25514;46.764;15.406;2022-08-11T17:10:29;97118.56;;;27.34;30.34